createdAt,value
2023-03-07T00:01:45.601Z,15.80
2023-03-07T00:04:17.791Z,15.80
2023-03-07T00:07:08.212Z,15.80
2023-03-07T00:09:39.278Z,15.80
2023-03-07T00:12:11.768Z,15.90
2023-03-07T00:14:43.786Z,15.90
2023-03-07T00:17:15.943Z,15.90
2023-03-07T00:19:46.757Z,15.90
2023-03-07T00:22:18.330Z,15.90
2023-03-07T00:24:52.408Z,15.90
2023-03-07T00:27:24.233Z,16.00
2023-03-07T00:29:55.070Z,16.00
2023-03-07T00:32:26.073Z,16.00
2023-03-07T00:34:58.919Z,16.00
2023-03-07T00:37:31.694Z,16.00
2023-03-07T00:40:02.642Z,16.10
2023-03-07T00:42:33.658Z,16.20
2023-03-07T00:45:05.658Z,16.20
2023-03-07T00:47:36.665Z,16.30
2023-03-07T00:50:07.818Z,16.30
2023-03-07T00:52:38.706Z,16.40
2023-03-07T00:55:10.278Z,16.40
2023-03-07T00:57:42.466Z,16.40
2023-03-07T01:00:18.070Z,16.40
2023-03-07T01:02:49.022Z,16.50
2023-03-07T01:05:19.750Z,16.50
2023-03-07T01:07:51.337Z,16.50
2023-03-07T01:10:22.138Z,16.60
2023-03-07T01:12:53.100Z,16.60
2023-03-07T01:15:25.382Z,16.70
2023-03-07T01:17:56.622Z,16.80
2023-03-07T01:20:28.019Z,16.80
2023-03-07T01:22:59.077Z,16.80
2023-03-07T01:25:30.442Z,16.90
2023-03-07T01:28:03.649Z,16.90
2023-03-07T01:30:36.176Z,17.00
2023-03-07T01:35:50.943Z,17.10
2023-03-07T01:38:23.045Z,17.10
2023-03-07T01:40:58.103Z,17.10
2023-03-07T01:43:34.948Z,17.10
2023-03-07T01:46:20.380Z,17.30
2023-03-07T01:49:02.729Z,17.30
2023-03-07T01:51:36.111Z,17.20
2023-03-07T01:54:11.319Z,17.30
2023-03-07T01:56:44.805Z,17.40
2023-03-07T01:59:20.380Z,17.50
2023-03-07T02:01:53.615Z,17.50
2023-03-07T02:04:34.421Z,17.70
2023-03-07T02:07:07.567Z,17.70
2023-03-07T02:09:40.421Z,17.80
2023-03-07T02:12:15.564Z,17.90
2023-03-07T02:14:49.531Z,18.00
2023-03-07T02:17:21.406Z,18.10
2023-03-07T02:20:17.143Z,18.20
2023-03-07T02:22:48.372Z,18.20
2023-03-07T02:25:48.491Z,18.30
2023-03-07T02:28:20.910Z,18.30
2023-03-07T02:30:57.720Z,18.40
2023-03-07T02:33:34.064Z,18.50
2023-03-07T02:36:16.474Z,18.50
2023-03-07T02:38:59.289Z,18.60
2023-03-07T02:41:35.762Z,18.70
2023-03-07T02:44:14.193Z,18.80
2023-03-07T02:46:45.824Z,18.90
2023-03-07T02:49:17.258Z,18.90
2023-03-07T02:51:48.251Z,19.00
2023-03-07T02:54:19.238Z,19.10
2023-03-07T02:56:52.115Z,19.20
2023-03-07T02:59:24.995Z,19.20
2023-03-07T03:01:56.292Z,19.30
2023-03-07T03:04:29.000Z,19.40
2023-03-07T03:07:00.054Z,19.40
2023-03-07T03:09:31.023Z,19.50
2023-03-07T03:12:02.427Z,19.50
2023-03-07T03:14:35.464Z,19.60
2023-03-07T03:17:06.667Z,19.70
2023-03-07T03:19:37.754Z,19.90
2023-03-07T03:22:08.952Z,19.90
2023-03-07T03:24:45.297Z,20.00
2023-03-07T03:27:19.839Z,20.00
2023-03-07T03:29:55.768Z,20.00
2023-03-07T03:32:27.485Z,20.10
2023-03-07T03:34:58.702Z,19.90
2023-03-07T03:37:29.863Z,20.00
2023-03-07T03:40:00.849Z,20.00
2023-03-07T03:42:31.784Z,20.00
2023-03-07T03:45:04.990Z,20.00
2023-03-07T03:47:37.124Z,20.00
2023-03-07T03:50:09.126Z,20.00
2023-03-07T03:52:40.417Z,20.00
2023-03-07T03:55:12.724Z,20.10
2023-03-07T03:57:44.045Z,20.00
2023-03-07T04:00:18.090Z,20.00
2023-03-07T04:02:52.105Z,20.00
2023-03-07T04:05:23.666Z,20.00
2023-03-07T04:07:55.812Z,20.00
2023-03-07T04:10:26.954Z,20.00
2023-03-07T04:12:58.103Z,20.00
2023-03-07T04:15:29.253Z,20.00
2023-03-07T04:18:00.791Z,20.00
2023-03-07T04:20:34.378Z,20.00
2023-03-07T04:23:05.063Z,20.00
2023-03-07T04:25:36.452Z,20.10
2023-03-07T04:28:07.825Z,20.00
2023-03-07T04:30:39.632Z,20.10
2023-03-07T04:33:13.250Z,20.20
2023-03-07T04:35:45.104Z,20.10
2023-03-07T04:38:17.658Z,20.20
2023-03-07T04:40:48.980Z,20.30
2023-03-07T04:43:20.364Z,20.40
2023-03-07T04:45:52.560Z,20.50
2023-03-07T04:48:25.098Z,20.50
2023-03-07T04:50:56.970Z,20.60
2023-03-07T04:53:29.718Z,20.60
2023-03-07T04:56:06.860Z,20.60
2023-03-07T04:58:40.479Z,20.60
2023-03-07T05:01:15.744Z,20.60
2023-03-07T05:03:47.749Z,20.60
2023-03-07T05:06:20.855Z,20.60
2023-03-07T05:08:54.372Z,20.60
2023-03-07T05:11:25.697Z,20.70
2023-03-07T05:13:57.719Z,20.80
2023-03-07T05:16:29.858Z,20.80
2023-03-07T05:19:04.401Z,20.80
2023-03-07T05:21:37.080Z,20.90
2023-03-07T05:24:11.525Z,21.00
2023-03-07T05:26:43.601Z,21.00
2023-03-07T05:29:17.048Z,21.00
2023-03-07T05:31:48.233Z,21.10
2023-03-07T05:34:21.357Z,21.10
2023-03-07T05:36:58.016Z,21.00
2023-03-07T05:39:52.225Z,21.00
2023-03-07T05:42:23.765Z,21.10
2023-03-07T05:44:54.914Z,21.10
2023-03-07T05:47:29.643Z,21.10
2023-03-07T05:50:00.693Z,21.10
2023-03-07T05:52:32.124Z,21.20
2023-03-07T05:55:06.460Z,21.20
2023-03-07T05:57:38.944Z,21.30
2023-03-07T06:00:10.637Z,21.30
2023-03-07T06:02:53.748Z,21.30
2023-03-07T06:05:25.514Z,21.30
2023-03-07T06:07:57.252Z,21.40
2023-03-07T06:10:28.506Z,21.40
2023-03-07T06:13:00.557Z,21.40
2023-03-07T06:15:31.850Z,21.60
2023-03-07T06:18:08.161Z,21.40
2023-03-07T06:20:39.379Z,21.40
2023-03-07T06:23:13.001Z,21.40
2023-03-07T06:25:44.886Z,21.50
2023-03-07T06:28:24.830Z,21.50
2023-03-07T06:30:57.440Z,21.60
2023-03-07T06:33:31.936Z,21.50
2023-03-07T06:36:10.300Z,21.60
2023-03-07T06:39:05.475Z,21.60
2023-03-07T06:41:38.249Z,21.40
2023-03-07T06:44:09.839Z,21.30
2023-03-07T06:46:55.050Z,21.30
2023-03-07T06:49:28.529Z,21.40
2023-03-07T06:52:00.206Z,21.50
2023-03-07T06:54:31.359Z,21.50
2023-03-07T06:57:02.692Z,21.60
2023-03-07T06:59:33.585Z,21.50
2023-03-07T07:02:05.942Z,21.50
2023-03-07T07:04:37.392Z,21.60
2023-03-07T07:07:09.120Z,21.40
2023-03-07T07:09:40.317Z,21.50
2023-03-07T07:12:11.962Z,21.40
2023-03-07T07:14:42.913Z,21.40
2023-03-07T07:17:14.120Z,21.40
2023-03-07T07:19:45.413Z,21.30
2023-03-07T07:22:19.318Z,21.40
2023-03-07T07:24:53.327Z,21.40
2023-03-07T07:27:24.714Z,21.30
2023-03-07T07:29:56.339Z,21.30
2023-03-07T07:32:27.796Z,21.30
2023-03-07T07:34:59.698Z,21.30
2023-03-07T07:37:31.327Z,21.30
2023-03-07T07:40:02.461Z,21.40
2023-03-07T07:42:33.460Z,21.40
2023-03-07T07:45:14.196Z,21.40
2023-03-07T07:47:46.596Z,21.40
2023-03-07T07:50:19.429Z,21.30
2023-03-07T07:52:51.636Z,21.30
2023-03-07T07:55:22.712Z,21.20
2023-03-07T07:57:54.545Z,21.20
2023-03-07T08:00:26.472Z,21.10
2023-03-07T08:03:02.652Z,21.20
2023-03-07T08:05:34.059Z,21.20
2023-03-07T08:08:05.165Z,21.30
2023-03-07T08:10:37.256Z,21.20
2023-03-07T08:13:09.451Z,21.20
2023-03-07T08:15:41.000Z,21.30
2023-03-07T08:18:12.764Z,21.30
2023-03-07T08:20:44.127Z,21.30
2023-03-07T08:23:15.256Z,21.30
2023-03-07T08:25:46.497Z,21.30
2023-03-07T08:28:17.942Z,21.30
2023-03-07T08:30:49.035Z,21.40
2023-03-07T08:33:23.726Z,21.30
2023-03-07T08:35:54.994Z,21.30
2023-03-07T08:38:34.430Z,21.30
2023-03-07T08:41:11.811Z,21.30
2023-03-07T08:43:44.187Z,21.30
2023-03-07T08:46:15.465Z,21.30
2023-03-07T08:48:46.794Z,21.20
2023-03-07T08:51:21.350Z,21.20
2023-03-07T08:53:52.626Z,21.20
2023-03-07T08:56:23.916Z,21.10
2023-03-07T08:58:58.915Z,21.10
2023-03-07T09:01:29.654Z,21.10
2023-03-07T09:04:00.729Z,21.10
2023-03-07T09:06:32.652Z,21.10
2023-03-07T09:09:05.523Z,21.10
2023-03-07T09:11:36.537Z,21.10
2023-03-07T09:14:07.488Z,20.90
2023-03-07T09:16:38.354Z,20.90
2023-03-07T09:19:09.266Z,20.80
2023-03-07T09:21:40.471Z,20.80
2023-03-07T09:24:11.573Z,20.80
2023-03-07T09:26:42.834Z,20.70
2023-03-07T09:29:21.785Z,20.70
2023-03-07T09:34:37.639Z,20.60
2023-03-07T09:37:08.750Z,20.60
2023-03-07T09:39:39.945Z,20.50
2023-03-07T09:42:17.608Z,20.50
2023-03-07T09:45:06.412Z,20.40
2023-03-07T09:48:21.269Z,20.40
2023-03-07T09:51:11.704Z,20.30
2023-03-07T09:57:00.941Z,20.20
2023-03-07T09:59:53.793Z,20.10
2023-03-07T10:02:49.267Z,20.00
2023-03-07T10:05:39.733Z,20.00
2023-03-07T10:08:20.337Z,19.90
2023-03-07T10:11:09.723Z,19.90
2023-03-07T10:14:11.586Z,19.90
2023-03-07T10:17:26.083Z,19.80
2023-03-07T10:20:08.584Z,19.70
2023-03-07T10:23:02.803Z,19.70
2023-03-07T10:25:50.606Z,19.70
2023-03-07T10:28:29.183Z,19.60
2023-03-07T10:31:18.431Z,19.60
2023-03-07T10:33:51.874Z,19.50
2023-03-07T10:36:41.236Z,19.50
2023-03-07T10:39:32.458Z,19.40
2023-03-07T10:42:03.930Z,19.40
2023-03-07T10:44:36.356Z,19.30
2023-03-07T10:47:08.020Z,19.30
2023-03-07T10:49:50.124Z,19.30
2023-03-07T10:52:50.220Z,19.20
2023-03-07T10:55:39.005Z,19.20
2023-03-07T10:58:22.810Z,19.20
2023-03-07T11:01:19.076Z,19.20
2023-03-07T11:03:57.552Z,19.10
2023-03-07T11:07:02.507Z,19.10
2023-03-07T11:09:48.370Z,19.10
2023-03-07T11:12:24.298Z,19.10
2023-03-07T11:15:04.411Z,19.00
2023-03-07T11:17:59.901Z,19.00
2023-03-07T11:20:48.371Z,18.90
2023-03-07T11:23:32.367Z,18.90
2023-03-07T11:26:24.490Z,18.90
2023-03-07T11:29:15.856Z,18.80
2023-03-07T11:31:59.632Z,18.80
2023-03-07T11:34:34.087Z,18.80
2023-03-07T11:37:29.879Z,18.80
2023-03-07T11:40:06.630Z,18.70
2023-03-07T11:43:17.584Z,18.70
2023-03-07T11:46:08.141Z,18.70
2023-03-07T11:48:48.407Z,18.70
2023-03-07T11:54:53.990Z,18.70
2023-03-07T11:57:47.080Z,18.60
2023-03-07T12:00:38.746Z,18.60
2023-03-07T12:03:35.189Z,18.50
2023-03-07T12:06:30.801Z,18.50
2023-03-07T12:09:25.157Z,18.40
2023-03-07T12:12:05.513Z,18.40
2023-03-07T12:14:58.693Z,18.40
2023-03-07T12:18:18.021Z,18.40
2023-03-07T12:21:17.927Z,18.40
2023-03-07T12:24:18.171Z,18.40
2023-03-07T12:27:00.895Z,18.40
2023-03-07T12:29:32.019Z,18.40
2023-03-07T12:32:09.465Z,18.40
2023-03-07T12:35:09.690Z,18.40
2023-03-07T12:37:56.662Z,18.40
2023-03-07T12:40:47.552Z,18.40
2023-03-07T12:43:41.295Z,18.30
2023-03-07T12:46:24.034Z,18.20
2023-03-07T12:49:08.488Z,18.30
2023-03-07T12:51:51.275Z,18.30
2023-03-07T12:54:28.246Z,18.30
2023-03-07T12:57:30.595Z,18.30
2023-03-07T13:00:11.282Z,18.20
2023-03-07T13:03:07.464Z,18.20
2023-03-07T13:05:39.995Z,18.20
2023-03-07T13:08:15.739Z,18.20
2023-03-07T13:10:48.481Z,18.20
2023-03-07T13:13:47.122Z,18.20
2023-03-07T13:16:46.644Z,18.20
2023-03-07T13:19:42.213Z,18.20
2023-03-07T13:25:23.909Z,18.10
2023-03-07T13:28:04.050Z,18.10
2023-03-07T13:30:36.685Z,18.10
2023-03-07T13:33:29.257Z,18.00
2023-03-07T13:36:03.481Z,18.00
2023-03-07T13:38:49.350Z,18.00
2023-03-07T13:41:50.795Z,18.00
2023-03-07T13:44:43.684Z,18.00
2023-03-07T13:47:50.804Z,18.00
2023-03-07T13:50:38.307Z,18.00
2023-03-07T13:53:32.345Z,18.00
2023-03-07T13:56:38.600Z,18.00
2023-03-07T13:59:29.869Z,18.00
2023-03-07T14:02:07.487Z,18.00
2023-03-07T14:04:42.856Z,18.00
2023-03-07T14:07:29.809Z,18.00
2023-03-07T14:10:22.879Z,18.00
2023-03-07T14:13:39.841Z,18.00
2023-03-07T14:16:45.097Z,18.00
2023-03-07T14:19:33.108Z,18.00
2023-03-07T14:22:20.680Z,18.00
2023-03-07T14:25:20.250Z,18.00
2023-03-07T14:27:59.364Z,18.00
2023-03-07T14:30:33.857Z,18.00
2023-03-07T14:33:05.312Z,18.00
2023-03-07T14:35:47.294Z,18.00
2023-03-07T14:38:25.083Z,18.00
2023-03-07T14:41:13.499Z,18.00
2023-03-07T14:43:54.764Z,18.00
2023-03-07T14:47:03.802Z,18.00
2023-03-07T14:52:35.901Z,17.90
2023-03-07T14:55:15.969Z,17.90
2023-03-07T14:57:51.264Z,18.00
2023-03-07T15:00:39.055Z,18.00
2023-03-07T15:03:16.402Z,18.10
2023-03-07T15:05:52.121Z,18.10
2023-03-07T15:08:32.806Z,18.10
2023-03-07T15:11:42.067Z,18.10
2023-03-07T15:14:22.216Z,18.10
2023-03-07T15:17:22.895Z,18.10
2023-03-07T15:20:02.516Z,18.10
2023-03-07T15:23:16.012Z,18.10
2023-03-07T15:28:38.325Z,18.00
2023-03-07T15:31:11.011Z,17.90
2023-03-07T15:33:42.582Z,17.80
2023-03-07T15:36:16.437Z,17.80
2023-03-07T15:38:56.342Z,17.80
2023-03-07T15:41:35.139Z,17.80
2023-03-07T15:44:20.246Z,17.80
2023-03-07T15:46:57.331Z,17.80
2023-03-07T15:49:34.436Z,17.80
2023-03-07T15:52:06.187Z,17.70
2023-03-07T15:54:46.132Z,17.70
2023-03-07T15:57:27.210Z,17.70
2023-03-07T16:00:36.793Z,17.70
2023-03-07T16:03:20.675Z,17.60
2023-03-07T16:05:52.224Z,17.60
2023-03-07T16:08:23.700Z,17.50
2023-03-07T16:11:06.518Z,17.50
2023-03-07T16:13:46.202Z,17.50
2023-03-07T16:16:21.623Z,17.40
2023-03-07T16:18:56.023Z,17.30
2023-03-07T16:21:46.899Z,17.30
2023-03-07T16:24:18.045Z,17.30
2023-03-07T16:26:50.319Z,17.30
2023-03-07T16:29:24.418Z,17.20
2023-03-07T16:31:56.627Z,17.20
2023-03-07T16:34:30.991Z,17.20
2023-03-07T16:37:13.474Z,17.10
2023-03-07T16:39:46.337Z,17.00
2023-03-07T16:42:37.247Z,17.00
2023-03-07T16:45:24.538Z,16.90
2023-03-07T16:47:58.130Z,16.90
2023-03-07T16:50:33.490Z,16.80
2023-03-07T16:53:04.897Z,16.80
2023-03-07T16:55:36.054Z,16.80
2023-03-07T16:58:09.186Z,16.80
2023-03-07T17:00:42.349Z,16.80
2023-03-07T17:03:16.831Z,16.80
2023-03-07T17:05:53.297Z,16.80
2023-03-07T17:08:24.531Z,16.80
2023-03-07T17:10:55.635Z,16.80
2023-03-07T17:13:26.772Z,16.70
2023-03-07T17:15:58.092Z,16.70
2023-03-07T17:18:31.300Z,16.60
2023-03-07T17:21:02.598Z,16.60
2023-03-07T17:23:33.930Z,16.60
2023-03-07T17:26:05.440Z,16.50
2023-03-07T17:28:44.430Z,16.50
2023-03-07T17:31:15.506Z,16.50
2023-03-07T17:33:46.816Z,16.40
2023-03-07T17:36:17.907Z,16.40
2023-03-07T17:38:49.016Z,16.40
2023-03-07T17:41:20.331Z,16.40
2023-03-07T17:43:51.256Z,16.40
2023-03-07T17:46:23.507Z,16.50
2023-03-07T17:48:56.179Z,16.40
2023-03-07T17:51:27.371Z,16.30
2023-03-07T17:53:59.283Z,16.30
2023-03-07T17:56:31.102Z,16.20
2023-03-07T17:59:03.040Z,16.20
2023-03-07T18:01:37.339Z,16.20
2023-03-07T18:04:08.985Z,16.30
2023-03-07T18:06:41.025Z,16.20
2023-03-07T18:09:12.398Z,16.20
2023-03-07T18:11:44.495Z,16.30
2023-03-07T18:14:15.454Z,16.30
2023-03-07T18:16:46.755Z,16.30
2023-03-07T18:19:26.197Z,16.30
2023-03-07T18:21:58.108Z,16.40
2023-03-07T18:24:33.770Z,16.40
2023-03-07T18:27:06.319Z,16.40
2023-03-07T18:29:38.267Z,16.40
2023-03-07T18:32:09.351Z,16.40
2023-03-07T18:34:40.541Z,16.40
2023-03-07T18:37:12.696Z,16.40
2023-03-07T18:39:44.775Z,16.40
2023-03-07T18:42:18.345Z,16.40
2023-03-07T18:44:50.457Z,16.40
2023-03-07T18:47:21.183Z,16.40
2023-03-07T18:49:55.444Z,16.40
2023-03-07T18:52:30.981Z,16.30
2023-03-07T18:55:02.629Z,16.30
2023-03-07T18:57:33.536Z,16.30
2023-03-07T19:00:06.253Z,16.30
2023-03-07T19:02:37.199Z,16.30
2023-03-07T19:05:08.784Z,16.30
2023-03-07T19:07:39.437Z,16.20
2023-03-07T19:10:10.645Z,16.20
2023-03-07T19:12:41.745Z,16.20
2023-03-07T19:15:13.257Z,16.20
2023-03-07T19:17:44.485Z,16.20
2023-03-07T19:20:15.571Z,16.20
2023-03-07T19:22:46.475Z,16.10
2023-03-07T19:25:17.593Z,16.20
2023-03-07T19:27:49.782Z,16.20
2023-03-07T19:30:22.474Z,16.20
2023-03-07T19:32:53.193Z,16.10
2023-03-07T19:35:24.533Z,16.00
2023-03-07T19:37:55.555Z,16.10
2023-03-07T19:40:29.831Z,16.10
2023-03-07T19:43:00.907Z,16.10
2023-03-07T19:45:31.730Z,16.10
2023-03-07T19:48:02.501Z,16.10
2023-03-07T19:50:42.457Z,16.20
2023-03-07T19:53:13.502Z,16.20
2023-03-07T19:55:44.498Z,16.20
2023-03-07T19:58:15.686Z,16.10
2023-03-07T20:00:50.252Z,16.10
2023-03-07T20:03:24.190Z,16.20
2023-03-07T20:05:55.953Z,16.20
2023-03-07T20:08:26.640Z,16.30
2023-03-07T20:11:08.730Z,16.20
2023-03-07T20:13:44.052Z,16.20
2023-03-07T20:16:16.339Z,16.20
2023-03-07T20:18:52.010Z,16.20
2023-03-07T20:21:27.998Z,16.10
2023-03-07T20:24:03.415Z,16.20
2023-03-07T20:26:39.978Z,16.20
2023-03-07T20:29:12.868Z,16.30
2023-03-07T20:31:43.891Z,16.30
2023-03-07T20:34:14.847Z,16.30
2023-03-07T20:36:46.183Z,16.30
2023-03-07T20:39:17.885Z,16.30
2023-03-07T20:41:49.167Z,16.30
2023-03-07T20:44:20.631Z,16.30
2023-03-07T20:46:51.341Z,16.40
2023-03-07T20:49:22.401Z,16.40
2023-03-07T20:51:54.777Z,16.30
2023-03-07T20:54:25.740Z,16.30
2023-03-07T20:56:56.892Z,16.30
2023-03-07T20:59:27.856Z,16.30
2023-03-07T21:01:58.966Z,16.30
2023-03-07T21:04:30.112Z,16.20
2023-03-07T21:07:02.271Z,16.30
2023-03-07T21:09:33.441Z,16.20
2023-03-07T21:12:04.540Z,16.30
2023-03-07T21:14:38.293Z,16.30
2023-03-07T21:17:10.650Z,16.40
2023-03-07T21:19:41.698Z,16.30
2023-03-07T21:22:12.451Z,16.20
2023-03-07T21:24:43.381Z,16.20
2023-03-07T21:27:14.341Z,16.20
2023-03-07T21:29:45.410Z,16.20
2023-03-07T21:32:16.202Z,16.20
2023-03-07T21:34:47.032Z,16.20
2023-03-07T21:37:17.964Z,16.30
2023-03-07T21:39:50.455Z,16.30
2023-03-07T21:42:21.597Z,16.30
2023-03-07T21:44:52.500Z,16.30
2023-03-07T21:47:43.572Z,16.30
2023-03-07T21:50:14.813Z,16.30
2023-03-07T21:52:47.371Z,16.30
2023-03-07T21:55:18.822Z,16.20
2023-03-07T21:57:49.784Z,16.20
2023-03-07T22:00:23.632Z,16.30
2023-03-07T22:02:55.131Z,16.20
2023-03-07T22:05:27.357Z,16.30
2023-03-07T22:07:58.538Z,16.30
2023-03-07T22:10:29.455Z,16.30
2023-03-07T22:13:06.887Z,16.30
2023-03-07T22:15:40.518Z,16.30
2023-03-07T22:18:11.234Z,16.30
2023-03-07T22:20:42.060Z,16.30
2023-03-07T22:23:12.935Z,16.30
2023-03-07T22:25:43.947Z,16.30
2023-03-07T22:28:18.176Z,16.20
2023-03-07T22:30:50.602Z,16.30
2023-03-07T22:33:21.683Z,16.40
2023-03-07T22:36:03.917Z,16.30
2023-03-07T22:38:35.336Z,16.30
2023-03-07T22:41:12.920Z,16.30
2023-03-07T22:43:43.967Z,16.30
2023-03-07T22:46:15.573Z,16.30
2023-03-07T22:49:06.407Z,16.20
2023-03-07T22:51:39.131Z,16.20
2023-03-07T22:54:10.463Z,16.20
2023-03-07T22:56:42.036Z,16.20
2023-03-07T22:59:13.218Z,16.30
2023-03-07T23:01:45.726Z,16.30
2023-03-07T23:04:16.833Z,16.30
2023-03-07T23:06:50.273Z,16.30
2023-03-07T23:09:21.510Z,16.30
2023-03-07T23:11:52.565Z,16.30
2023-03-07T23:14:26.655Z,16.30
2023-03-07T23:16:57.692Z,16.30
2023-03-07T23:19:30.626Z,16.30
2023-03-07T23:22:03.414Z,16.30
2023-03-07T23:24:34.268Z,16.30
2023-03-07T23:27:05.110Z,16.30
2023-03-07T23:29:35.843Z,16.30
2023-03-07T23:32:07.232Z,16.30
2023-03-07T23:34:38.281Z,16.30
2023-03-07T23:37:11.743Z,16.20
2023-03-07T23:39:44.424Z,16.20
2023-03-07T23:42:15.774Z,16.20
2023-03-07T23:44:47.105Z,16.20
2023-03-07T23:47:18.134Z,16.30
2023-03-07T23:49:48.891Z,16.30
2023-03-07T23:52:19.880Z,16.30
2023-03-07T23:54:50.873Z,16.30
2023-03-07T23:57:25.324Z,16.40
2023-03-07T23:59:56.481Z,16.40
